createdAt,value
2022-09-09T00:00:23.839Z,64.21
2022-09-09T00:03:10.190Z,63.34
2022-09-09T00:05:59.998Z,64.11
2022-09-09T00:08:54.871Z,63.89
2022-09-09T00:11:37.849Z,63.76
2022-09-09T00:14:30.121Z,64.01
2022-09-09T00:17:08.286Z,63.56
2022-09-09T00:20:02.504Z,64.41
2022-09-09T00:22:35.804Z,64.43
2022-09-09T00:25:14.105Z,64.82
2022-09-09T00:27:48.195Z,64.87
2022-09-09T00:30:22.015Z,64.97
2022-09-09T00:32:59.839Z,64.84
2022-09-09T00:35:38.030Z,64.90
2022-09-09T00:38:16.561Z,64.74
2022-09-09T00:40:57.236Z,64.20
2022-09-09T00:43:40.000Z,64.45
2022-09-09T00:46:38.544Z,64.96
2022-09-09T00:49:23.191Z,65.24
2022-09-09T00:52:20.199Z,64.89
2022-09-09T00:54:59.989Z,65.66
2022-09-09T00:57:36.407Z,65.66
2022-09-09T01:00:25.755Z,65.48
2022-09-09T01:03:26.167Z,65.47
2022-09-09T01:06:05.988Z,65.49
2022-09-09T01:08:56.914Z,65.05
2022-09-09T01:11:32.779Z,65.32
2022-09-09T01:14:25.517Z,64.75
2022-09-09T01:17:01.772Z,65.08
2022-09-09T01:19:49.082Z,65.42
2022-09-09T01:22:30.360Z,64.83
2022-09-09T01:25:30.386Z,64.35
2022-09-09T01:28:19.968Z,63.74
2022-09-09T01:30:53.118Z,63.66
2022-09-09T01:33:27.217Z,63.43
2022-09-09T01:36:38.867Z,63.44
2022-09-09T01:39:08.299Z,63.17
2022-09-09T01:42:01.039Z,63.50
2022-09-09T01:44:39.542Z,63.73
2022-09-09T01:47:15.768Z,63.24
2022-09-09T01:50:20.014Z,63.72
2022-09-09T01:53:05.430Z,64.13
2022-09-09T01:55:47.298Z,64.02
2022-09-09T01:58:37.579Z,64.33
2022-09-09T02:01:54.470Z,65.23
2022-09-09T02:04:47.152Z,65.61
2022-09-09T02:07:47.419Z,65.39
2022-09-09T02:10:46.374Z,65.91
2022-09-09T02:13:49.444Z,65.95
2022-09-09T02:16:31.953Z,66.12
2022-09-09T02:19:24.202Z,66.37
2022-09-09T02:22:16.900Z,66.71
2022-09-09T02:24:49.919Z,67.16
2022-09-09T02:27:27.236Z,67.20
2022-09-09T02:30:01.281Z,67.38
2022-09-09T02:33:17.422Z,67.13
2022-09-09T02:36:03.380Z,67.95
2022-09-09T02:38:38.310Z,67.87
2022-09-09T02:41:14.936Z,68.13
2022-09-09T02:43:49.705Z,67.67
2022-09-09T02:46:37.453Z,68.68
2022-09-09T02:49:15.835Z,68.70
2022-09-09T02:51:57.663Z,68.51
2022-09-09T02:54:53.379Z,68.54
2022-09-09T02:57:29.864Z,68.68
2022-09-09T03:00:29.610Z,68.78
2022-09-09T03:03:12.658Z,68.85
2022-09-09T03:05:44.577Z,68.56
2022-09-09T03:08:22.360Z,68.80
2022-09-09T03:10:55.180Z,68.89
2022-09-09T03:13:23.748Z,68.40
2022-09-09T03:15:52.769Z,68.65
2022-09-09T03:18:22.760Z,68.49
2022-09-09T03:20:55.027Z,68.46
2022-09-09T03:23:25.545Z,69.09
2022-09-09T03:25:57.792Z,69.10
2022-09-09T03:28:32.206Z,69.10
2022-09-09T03:31:02.481Z,68.95
2022-09-09T03:33:35.216Z,68.96
2022-09-09T03:36:03.673Z,68.68
2022-09-09T03:38:34.612Z,68.72
2022-09-09T03:41:03.376Z,69.59
2022-09-09T03:43:32.379Z,69.96
2022-09-09T03:46:00.515Z,70.36
2022-09-09T03:48:30.102Z,70.58
2022-09-09T03:51:01.738Z,70.45
2022-09-09T03:53:32.995Z,70.36
2022-09-09T03:56:01.717Z,69.52
2022-09-09T03:58:31.376Z,70.11
2022-09-09T04:01:06.330Z,69.66
2022-09-09T04:03:35.383Z,69.73
2022-09-09T04:06:05.402Z,68.98
2022-09-09T04:08:38.215Z,69.35
2022-09-09T04:11:13.455Z,69.37
2022-09-09T04:13:50.549Z,69.83
2022-09-09T04:16:24.251Z,69.43
2022-09-09T04:18:55.145Z,69.79
2022-09-09T04:21:36.236Z,70.12
2022-09-09T04:24:48.533Z,70.45
2022-09-09T04:27:41.682Z,70.46
2022-09-09T04:30:36.780Z,70.24
2022-09-09T04:33:20.504Z,70.74
2022-09-09T04:36:05.385Z,70.25
2022-09-09T04:38:38.642Z,71.61
2022-09-09T04:41:16.236Z,71.20
2022-09-09T04:43:49.702Z,70.70
2022-09-09T04:46:23.114Z,70.30
2022-09-09T04:49:00.129Z,70.38
2022-09-09T04:51:55.008Z,70.39
2022-09-09T04:54:27.914Z,70.83
2022-09-09T04:56:59.358Z,70.90
2022-09-09T04:59:32.596Z,71.17
2022-09-09T05:02:08.182Z,71.33
2022-09-09T05:04:41.725Z,70.78
2022-09-09T05:07:11.460Z,70.74
2022-09-09T05:09:44.682Z,71.10
2022-09-09T05:12:25.401Z,71.30
2022-09-09T05:15:01.650Z,71.10
2022-09-09T05:17:33.249Z,71.30
2022-09-09T05:20:22.505Z,71.56
2022-09-09T05:23:00.801Z,71.51
2022-09-09T05:25:38.209Z,71.27
2022-09-09T05:28:37.117Z,71.67
2022-09-09T05:31:22.707Z,72.02
2022-09-09T05:34:24.194Z,71.52
2022-09-09T05:36:56.708Z,71.39
2022-09-09T05:39:28.645Z,71.52
2022-09-09T05:42:03.532Z,71.16
2022-09-09T05:44:40.950Z,71.40
2022-09-09T05:47:10.756Z,71.33
2022-09-09T05:49:49.729Z,70.93
2022-09-09T05:52:20.641Z,71.18
2022-09-09T05:54:52.480Z,71.26
2022-09-09T05:57:29.893Z,71.03
2022-09-09T06:00:14.109Z,71.03
2022-09-09T06:02:47.903Z,70.62
2022-09-09T06:05:16.809Z,70.90
2022-09-09T06:07:46.310Z,70.68
2022-09-09T06:10:20.858Z,70.74
2022-09-09T06:12:56.272Z,70.48
2022-09-09T06:15:28.470Z,71.50
2022-09-09T06:18:01.494Z,71.96
2022-09-09T06:20:35.830Z,71.64
2022-09-09T06:23:14.109Z,70.81
2022-09-09T06:25:47.799Z,70.94
2022-09-09T06:28:27.120Z,70.58
2022-09-09T06:31:08.926Z,71.21
2022-09-09T06:33:43.356Z,71.16
2022-09-09T06:36:26.845Z,69.09
2022-09-09T06:38:56.437Z,69.05
2022-09-09T06:41:31.635Z,69.26
2022-09-09T06:44:43.193Z,68.54
2022-09-09T06:47:22.741Z,69.24
2022-09-09T06:49:57.423Z,69.09
2022-09-09T06:52:27.587Z,68.25
2022-09-09T06:55:00.446Z,68.67
2022-09-09T06:57:45.863Z,68.28
2022-09-09T07:00:25.205Z,68.69
2022-09-09T07:03:00.011Z,69.11
2022-09-09T07:05:55.307Z,68.75
2022-09-09T07:08:36.505Z,67.51
2022-09-09T07:11:12.394Z,67.83
2022-09-09T07:13:46.975Z,67.43
2022-09-09T07:16:33.537Z,67.35
2022-09-09T07:19:21.903Z,68.43
2022-09-09T07:22:00.422Z,67.92
2022-09-09T07:24:31.714Z,67.88
2022-09-09T07:27:05.074Z,67.45
2022-09-09T07:29:33.408Z,68.11
2022-09-09T07:32:03.946Z,67.62
2022-09-09T07:34:39.848Z,67.98
2022-09-09T07:37:09.353Z,67.19
2022-09-09T07:39:39.620Z,67.03
2022-09-09T07:42:12.295Z,67.11
2022-09-09T07:44:41.437Z,67.46
2022-09-09T07:47:19.447Z,67.69
2022-09-09T07:49:55.676Z,67.44
2022-09-09T07:52:30.351Z,67.59
2022-09-09T07:55:03.677Z,68.12
2022-09-09T07:57:34.746Z,67.34
2022-09-09T08:00:06.663Z,67.37
2022-09-09T08:02:44.205Z,67.04
2022-09-09T08:05:21.395Z,67.23
2022-09-09T08:07:54.673Z,67.06
2022-09-09T08:10:24.476Z,67.03
2022-09-09T08:13:16.646Z,67.83
2022-09-09T08:15:53.203Z,66.80
2022-09-09T08:18:25.913Z,67.45
2022-09-09T08:21:09.882Z,66.63
2022-09-09T08:23:41.281Z,66.76
2022-09-09T08:26:16.373Z,67.23
2022-09-09T08:28:45.976Z,66.68
2022-09-09T08:31:18.073Z,67.00
2022-09-09T08:33:53.127Z,67.18
2022-09-09T08:36:26.628Z,67.77
2022-09-09T08:38:56.769Z,67.68
2022-09-09T08:41:52.102Z,67.67
2022-09-09T08:44:34.133Z,68.00
2022-09-09T08:47:12.939Z,68.20
2022-09-09T08:50:00.159Z,68.09
2022-09-09T08:52:34.634Z,67.62
2022-09-09T08:55:16.049Z,67.90
2022-09-09T08:57:46.863Z,67.53
2022-09-09T09:00:17.558Z,67.48
2022-09-09T09:02:57.837Z,67.12
2022-09-09T09:05:34.602Z,67.19
2022-09-09T09:08:14.934Z,66.97
2022-09-09T09:10:50.253Z,67.11
2022-09-09T09:13:30.017Z,67.64
2022-09-09T09:16:07.112Z,67.95
2022-09-09T09:18:38.801Z,67.75
2022-09-09T09:21:16.580Z,66.51
2022-09-09T09:23:53.228Z,66.31
2022-09-09T09:26:25.769Z,66.32
2022-09-09T09:28:58.595Z,66.94
2022-09-09T09:31:30.206Z,66.71
2022-09-09T09:34:01.570Z,66.86
2022-09-09T09:36:42.845Z,67.00
2022-09-09T09:42:27.682Z,66.60
2022-09-09T09:45:09.975Z,66.47
2022-09-09T09:47:42.687Z,66.24
2022-09-09T09:50:22.539Z,66.49
2022-09-09T09:53:00.297Z,66.02
2022-09-09T09:55:38.516Z,66.26
2022-09-09T09:58:19.595Z,66.13
2022-09-09T10:01:01.484Z,65.38
2022-09-09T10:03:40.939Z,65.69
2022-09-09T10:06:10.840Z,65.66
2022-09-09T10:08:51.432Z,65.40
2022-09-09T10:11:37.521Z,65.46
2022-09-09T10:14:21.742Z,65.15
2022-09-09T10:17:20.078Z,64.96
2022-09-09T10:20:04.064Z,64.26
2022-09-09T10:22:41.536Z,64.59
2022-09-09T10:25:32.287Z,64.31
2022-09-09T10:28:21.658Z,63.98
2022-09-09T10:31:01.521Z,63.34
2022-09-09T10:33:49.752Z,64.06
2022-09-09T10:36:30.764Z,63.60
2022-09-09T10:39:14.234Z,64.11
2022-09-09T10:42:03.678Z,63.22
2022-09-09T10:44:51.549Z,63.50
2022-09-09T10:48:05.677Z,63.26
2022-09-09T10:51:15.573Z,62.72
2022-09-09T10:53:59.071Z,60.99
2022-09-09T10:56:31.411Z,59.26
2022-09-09T10:59:05.051Z,60.07
2022-09-09T11:01:46.685Z,60.57
2022-09-09T11:04:22.717Z,60.37
2022-09-09T11:06:57.447Z,60.45
2022-09-09T11:09:31.367Z,60.71
2022-09-09T11:12:03.608Z,60.57
2022-09-09T11:14:40.624Z,60.28
2022-09-09T11:17:16.766Z,59.73
2022-09-09T11:19:48.905Z,58.10
2022-09-09T11:22:29.218Z,57.21
2022-09-09T11:25:10.162Z,58.62
2022-09-09T11:27:46.012Z,57.22
2022-09-09T11:30:51.158Z,56.05
2022-09-09T11:33:37.120Z,55.79
2022-09-09T11:36:54.907Z,55.60
2022-09-09T11:39:51.875Z,55.77
2022-09-09T11:42:27.910Z,56.36
2022-09-09T11:44:59.949Z,55.10
2022-09-09T11:47:33.718Z,56.34
2022-09-09T11:50:33.378Z,56.10
2022-09-09T11:53:23.743Z,56.35
2022-09-09T11:56:10.741Z,56.83
2022-09-09T11:58:44.642Z,57.09
2022-09-09T12:01:30.588Z,57.66
2022-09-09T12:04:32.249Z,57.11
2022-09-09T12:07:26.679Z,57.90
2022-09-09T12:10:03.016Z,57.88
2022-09-09T12:12:36.759Z,57.30
2022-09-09T12:15:24.833Z,57.63
2022-09-09T12:18:02.931Z,57.67
2022-09-09T12:20:39.956Z,57.24
2022-09-09T12:23:37.399Z,59.02
2022-09-09T12:26:32.236Z,57.46
2022-09-09T12:29:13.195Z,57.45
2022-09-09T12:31:49.067Z,56.95
2022-09-09T12:34:23.788Z,56.50
2022-09-09T12:37:01.109Z,55.95
2022-09-09T12:39:38.067Z,55.54
2022-09-09T12:42:25.942Z,56.14
2022-09-09T12:45:09.740Z,56.65
2022-09-09T12:47:54.495Z,55.33
2022-09-09T12:50:26.793Z,55.65
2022-09-09T12:53:00.179Z,56.31
2022-09-09T12:55:36.715Z,55.49
2022-09-09T12:58:07.980Z,55.26
2022-09-09T13:00:39.105Z,55.74
2022-09-09T13:03:21.434Z,55.65
2022-09-09T13:05:51.339Z,55.38
2022-09-09T13:08:22.895Z,55.18
2022-09-09T13:11:02.538Z,54.55
2022-09-09T13:13:38.945Z,54.43
2022-09-09T13:16:11.518Z,53.40
2022-09-09T13:18:45.107Z,51.98
2022-09-09T13:21:35.071Z,52.63
2022-09-09T13:24:36.915Z,52.72
2022-09-09T13:27:29.109Z,52.33
2022-09-09T13:29:59.138Z,52.17
2022-09-09T13:32:32.707Z,51.90
2022-09-09T13:35:05.098Z,52.47
2022-09-09T13:37:39.112Z,53.13
2022-09-09T13:40:20.411Z,52.73
2022-09-09T13:42:55.810Z,53.34
2022-09-09T13:45:28.914Z,53.46
2022-09-09T13:47:58.384Z,53.39
2022-09-09T13:50:29.349Z,53.79
2022-09-09T13:53:01.398Z,53.52
2022-09-09T13:55:33.542Z,53.75
2022-09-09T13:58:06.896Z,53.75
2022-09-09T14:00:37.661Z,53.46
2022-09-09T14:03:06.038Z,54.04
2022-09-09T14:05:37.796Z,53.91
2022-09-09T14:08:08.892Z,53.27
2022-09-09T14:10:42.542Z,51.92
2022-09-09T14:13:15.122Z,50.48
2022-09-09T14:16:13.080Z,50.07
2022-09-09T14:18:58.599Z,49.67
2022-09-09T14:21:36.636Z,50.80
2022-09-09T14:24:18.990Z,51.97
2022-09-09T14:27:12.932Z,51.63
2022-09-09T14:29:44.926Z,52.07
2022-09-09T14:32:26.470Z,52.38
2022-09-09T14:35:03.026Z,51.74
2022-09-09T14:37:54.583Z,52.06
2022-09-09T14:40:24.043Z,52.63
2022-09-09T14:42:54.613Z,53.06
2022-09-09T14:45:28.877Z,54.31
2022-09-09T14:48:01.975Z,54.14
2022-09-09T14:50:32.156Z,55.21
2022-09-09T14:53:02.877Z,55.20
2022-09-09T14:55:33.099Z,54.89
2022-09-09T14:58:03.359Z,54.85
2022-09-09T15:00:33.921Z,55.42
2022-09-09T15:03:06.018Z,55.03
2022-09-09T15:05:36.558Z,53.90
2022-09-09T15:08:06.158Z,54.24
2022-09-09T15:10:34.593Z,54.00
2022-09-09T15:13:04.664Z,54.57
2022-09-09T15:15:37.357Z,54.51
2022-09-09T15:18:09.660Z,54.72
2022-09-09T15:20:40.510Z,54.04
2022-09-09T15:23:10.374Z,55.04
2022-09-09T15:25:41.386Z,55.37
2022-09-09T15:28:11.510Z,55.83
2022-09-09T15:30:42.356Z,55.43
2022-09-09T15:33:13.051Z,55.11
2022-09-09T15:35:42.592Z,55.77
2022-09-09T15:38:11.808Z,55.47
2022-09-09T15:40:43.277Z,56.52
2022-09-09T15:43:14.074Z,56.09
2022-09-09T15:45:45.322Z,56.43
2022-09-09T15:48:17.044Z,56.67
2022-09-09T15:50:48.030Z,56.83
2022-09-09T15:53:19.138Z,56.25
2022-09-09T15:55:51.283Z,56.84
2022-09-09T15:58:23.144Z,56.43
2022-09-09T16:00:52.968Z,56.88
2022-09-09T16:03:24.161Z,56.89
2022-09-09T16:05:54.053Z,56.23
2022-09-09T16:08:22.759Z,55.89
2022-09-09T16:10:51.961Z,55.64
2022-09-09T16:13:20.513Z,55.92
2022-09-09T16:16:01.147Z,55.63
2022-09-09T16:18:36.129Z,56.30
2022-09-09T16:21:07.451Z,55.60
2022-09-09T16:23:36.742Z,56.19
2022-09-09T16:26:06.470Z,55.32
2022-09-09T16:28:37.442Z,55.67
2022-09-09T16:31:11.801Z,54.93
2022-09-09T16:33:42.360Z,54.79
2022-09-09T16:36:13.501Z,55.54
2022-09-09T16:38:44.498Z,55.66
2022-09-09T16:41:17.265Z,56.55
2022-09-09T16:43:48.243Z,56.89
2022-09-09T16:46:22.849Z,57.28
2022-09-09T16:49:03.325Z,57.07
2022-09-09T16:51:51.279Z,57.85
2022-09-09T16:54:30.294Z,57.65
2022-09-09T16:57:02.275Z,56.63
2022-09-09T16:59:33.226Z,57.25
2022-09-09T17:02:05.959Z,57.35
2022-09-09T17:04:34.591Z,57.98
2022-09-09T17:07:04.265Z,58.29
2022-09-09T17:09:32.919Z,58.18
2022-09-09T17:12:02.718Z,58.18
2022-09-09T17:14:33.540Z,58.27
2022-09-09T17:17:24.755Z,58.22
2022-09-09T17:19:54.560Z,58.63
2022-09-09T17:22:28.622Z,58.79
2022-09-09T17:24:57.567Z,59.96
2022-09-09T17:27:32.467Z,60.49
2022-09-09T17:30:07.734Z,61.15
2022-09-09T17:32:39.303Z,60.84
2022-09-09T17:35:11.613Z,60.66
2022-09-09T17:37:44.118Z,60.18
2022-09-09T17:40:15.994Z,60.34
2022-09-09T17:42:45.475Z,59.29
2022-09-09T17:45:19.481Z,59.52
2022-09-09T17:47:51.560Z,58.60
2022-09-09T17:50:19.762Z,59.59
2022-09-09T17:52:51.073Z,59.00
2022-09-09T17:55:22.993Z,59.54
2022-09-09T17:57:54.773Z,59.18
2022-09-09T18:00:25.713Z,59.92
2022-09-09T18:02:57.425Z,59.85
2022-09-09T18:05:26.218Z,59.75
2022-09-09T18:07:56.274Z,60.54
2022-09-09T18:10:24.911Z,59.57
2022-09-09T18:12:58.789Z,59.64
2022-09-09T18:15:47.979Z,59.65
2022-09-09T18:18:17.161Z,59.53
2022-09-09T18:20:45.679Z,59.13
2022-09-09T18:23:15.148Z,59.08
2022-09-09T18:25:45.407Z,59.41
2022-09-09T18:28:14.657Z,59.37
2022-09-09T18:30:44.621Z,59.73
2022-09-09T18:33:13.700Z,59.67
2022-09-09T18:35:44.247Z,58.81
2022-09-09T18:38:13.746Z,59.52
2022-09-09T18:40:43.448Z,59.89
2022-09-09T18:43:22.992Z,60.56
2022-09-09T18:45:59.696Z,59.85
2022-09-09T18:48:29.042Z,60.48
2022-09-09T18:51:04.823Z,60.13
2022-09-09T18:53:35.500Z,60.02
2022-09-09T18:56:08.446Z,59.96
2022-09-09T18:58:40.070Z,60.67
2022-09-09T19:01:12.972Z,60.32
2022-09-09T19:03:44.578Z,60.17
2022-09-09T19:06:21.679Z,59.58
2022-09-09T19:08:56.256Z,59.99
2022-09-09T19:11:32.529Z,60.27
2022-09-09T19:14:05.799Z,59.62
2022-09-09T19:16:37.165Z,60.28
2022-09-09T19:19:11.586Z,59.96
2022-09-09T19:21:47.779Z,59.66
2022-09-09T19:24:20.053Z,59.73
2022-09-09T19:26:58.511Z,60.11
2022-09-09T19:29:31.115Z,60.47
2022-09-09T19:32:51.602Z,60.89
2022-09-09T19:34:55.178Z,61.38
2022-09-09T19:37:26.728Z,61.70
2022-09-09T19:39:56.547Z,61.51
2022-09-09T19:42:25.635Z,61.05
2022-09-09T19:44:56.840Z,61.02
2022-09-09T19:47:27.762Z,61.24
2022-09-09T19:49:59.882Z,61.17
2022-09-09T19:52:32.746Z,61.47
2022-09-09T19:55:02.647Z,61.50
2022-09-09T19:57:34.801Z,61.94
2022-09-09T20:00:05.512Z,62.12
2022-09-09T20:02:58.060Z,61.28
2022-09-09T20:05:34.992Z,61.04
2022-09-09T20:08:07.816Z,62.17
2022-09-09T20:10:36.795Z,61.54
2022-09-09T20:13:06.852Z,61.44
2022-09-09T20:15:36.514Z,61.24
2022-09-09T20:18:08.754Z,61.21
2022-09-09T20:20:43.409Z,61.01
2022-09-09T20:23:17.428Z,60.70
2022-09-09T20:25:50.137Z,61.04
2022-09-09T20:28:21.320Z,60.74
2022-09-09T20:30:54.149Z,60.99
2022-09-09T20:33:25.637Z,60.92
2022-09-09T20:35:55.083Z,61.15
2022-09-09T20:38:26.916Z,61.79
2022-09-09T20:40:58.640Z,62.07
2022-09-09T20:43:29.723Z,62.10
2022-09-09T20:46:04.088Z,62.57
2022-09-09T20:48:35.139Z,62.56
2022-09-09T20:51:11.450Z,63.22
2022-09-09T20:53:43.332Z,62.77
2022-09-09T20:56:13.086Z,62.50
2022-09-09T20:58:44.383Z,63.15
2022-09-09T21:01:19.416Z,63.72
2022-09-09T21:03:50.054Z,64.03
2022-09-09T21:06:20.915Z,63.33
2022-09-09T21:08:52.129Z,63.57
2022-09-09T21:11:21.586Z,64.23
2022-09-09T21:13:52.973Z,64.90
2022-09-09T21:16:22.598Z,64.72
2022-09-09T21:18:52.865Z,65.13
2022-09-09T21:21:22.942Z,65.08
2022-09-09T21:23:57.056Z,64.60
2022-09-09T21:26:26.994Z,65.03
2022-09-09T21:28:57.107Z,65.09
2022-09-09T21:31:28.493Z,65.13
2022-09-09T21:33:59.624Z,64.78
2022-09-09T21:36:29.648Z,64.63
2022-09-09T21:39:02.345Z,64.17
2022-09-09T21:41:31.265Z,64.72
2022-09-09T21:43:59.325Z,64.90
2022-09-09T21:46:28.174Z,64.78
2022-09-09T21:48:57.169Z,64.32
2022-09-09T21:51:26.575Z,64.83
2022-09-09T21:53:56.672Z,64.71
2022-09-09T21:56:27.847Z,64.23
2022-09-09T21:58:58.375Z,65.02
2022-09-09T22:01:28.353Z,64.37
2022-09-09T22:03:57.263Z,65.10
2022-09-09T22:06:25.471Z,64.53
2022-09-09T22:08:59.420Z,64.69
2022-09-09T22:11:30.367Z,64.03
2022-09-09T22:14:00.358Z,63.69
2022-09-09T22:16:29.147Z,63.48
2022-09-09T22:19:01.029Z,63.73
2022-09-09T22:21:32.366Z,63.75
2022-09-09T22:24:04.928Z,63.66
2022-09-09T22:26:39.023Z,63.49
2022-09-09T22:29:09.646Z,63.75
2022-09-09T22:31:39.426Z,62.92
2022-09-09T22:34:08.835Z,63.62
2022-09-09T22:36:38.781Z,64.06
2022-09-09T22:39:09.056Z,63.88
2022-09-09T22:41:43.115Z,63.95
2022-09-09T22:44:13.659Z,63.92
2022-09-09T22:46:44.391Z,63.93
2022-09-09T22:49:14.463Z,63.85
2022-09-09T22:51:42.816Z,64.00
2022-09-09T22:54:12.823Z,63.96
2022-09-09T22:56:44.495Z,63.57
2022-09-09T22:59:16.583Z,63.75
2022-09-09T23:01:48.281Z,63.74
2022-09-09T23:04:19.351Z,63.85
2022-09-09T23:06:48.507Z,63.54
2022-09-09T23:09:18.494Z,63.53
2022-09-09T23:11:49.323Z,63.26
2022-09-09T23:14:17.222Z,63.52
2022-09-09T23:16:46.918Z,63.78
2022-09-09T23:19:17.315Z,64.30
2022-09-09T23:21:47.150Z,64.49
2022-09-09T23:24:17.684Z,64.42
2022-09-09T23:26:47.389Z,65.12
2022-09-09T23:29:16.888Z,65.92
2022-09-09T23:31:46.608Z,65.84
2022-09-09T23:34:14.839Z,65.53
2022-09-09T23:36:43.061Z,64.91
2022-09-09T23:39:13.181Z,65.46
2022-09-09T23:41:41.727Z,65.09
2022-09-09T23:44:12.828Z,64.90
2022-09-09T23:46:42.542Z,65.07
2022-09-09T23:49:11.229Z,64.55
2022-09-09T23:51:39.458Z,65.52
2022-09-09T23:54:09.417Z,65.37
2022-09-09T23:56:40.458Z,65.08
2022-09-09T23:59:09.709Z,65.06
